sensor_id;sensor_type;location;lat;lon;timestamp;pressure;altitude;pressure_sealevel;temperature;humidity
39681;BME280;26327;42.550;23.120;2023-02-15T11:54:29;93911.56;;;18.36;31.02
39681;BME280;26327;42.550;23.120;2023-02-15T11:57:01;93908.69;;;19.24;29.51
39681;BME280;26327;42.550;23.120;2023-02-15T11:59:32;93885.19;;;20.50;28.55
39681;BME280;26327;42.550;23.120;2023-02-15T12:01:59;93898.56;;;21.78;27.49
39681;BME280;26327;42.550;23.120;2023-02-15T12:04:40;93886.50;;;22.12;26.09
39681;BME280;26327;42.550;23.120;2023-02-15T12:07:13;93857.22;;;22.37;25.46
39681;BME280;26327;42.550;23.120;2023-02-15T12:14:49;93890.88;;;21.88;25.77
39681;BME280;26327;42.550;23.120;2023-02-15T12:17:17;93882.78;;;21.34;26.57
39681;BME280;26327;42.550;23.120;2023-02-15T12:19:43;93877.78;;;20.02;28.08
39681;BME280;26327;42.550;23.120;2023-02-15T12:22:29;93866.41;;;20.58;28.53
39681;BME280;26327;42.550;23.120;2023-02-15T12:24:58;93840.31;;;20.50;27.62
39681;BME280;26327;42.550;23.120;2023-02-15T12:27:27;93869.31;;;20.18;28.24
39681;BME280;26327;42.550;23.120;2023-02-15T12:30:01;93882.31;;;19.88;28.65
39681;BME280;26327;42.550;23.120;2023-02-15T12:32:35;93845.66;;;19.73;29.28
39681;BME280;26327;42.550;23.120;2023-02-15T12:35:20;93852.88;;;18.55;31.25
39681;BME280;26327;42.550;23.120;2023-02-15T12:37:55;93823.72;;;17.78;31.82
39681;BME280;26327;42.550;23.120;2023-02-15T12:40:29;93826.31;;;17.10;35.76
39681;BME280;26327;42.550;23.120;2023-02-15T12:42:55;93850.00;;;17.23;34.27
39681;BME280;26327;42.550;23.120;2023-02-15T12:50:38;93872.69;;;15.04;37.60
39681;BME280;26327;42.550;23.120;2023-02-15T12:56:06;93863.31;;;13.91;39.83
39681;BME280;26327;42.550;23.120;2023-02-15T12:58:41;93814.03;;;13.88;40.71
39681;BME280;26327;42.550;23.120;2023-02-15T13:01:12;93801.91;;;12.95;41.90
39681;BME280;26327;42.550;23.120;2023-02-15T13:06:18;93853.19;;;12.72;43.52
39681;BME280;26327;42.550;23.120;2023-02-15T13:08:52;93847.59;;;12.27;44.12
39681;BME280;26327;42.550;23.120;2023-02-15T13:11:29;93845.34;;;12.16;46.15
39681;BME280;26327;42.550;23.120;2023-02-15T13:14:02;93805.47;;;11.59;46.34
39681;BME280;26327;42.550;23.120;2023-02-15T13:16:31;93808.56;;;11.46;47.17
39681;BME280;26327;42.550;23.120;2023-02-15T13:19:03;93809.69;;;11.68;47.50
39681;BME280;26327;42.550;23.120;2023-02-15T13:21:37;93845.66;;;11.64;48.67
39681;BME280;26327;42.550;23.120;2023-02-15T13:24:24;93814.69;;;11.04;49.70
39681;BME280;26327;42.550;23.120;2023-02-15T13:26:52;93835.72;;;10.85;49.90
39681;BME280;26327;42.550;23.120;2023-02-15T13:29:37;93847.72;;;10.70;52.21
39681;BME280;26327;42.550;23.120;2023-02-15T13:32:33;93844.13;;;10.71;51.32
39681;BME280;26327;42.550;23.120;2023-02-15T13:34:59;93868.56;;;10.86;50.22
39681;BME280;26327;42.550;23.120;2023-02-15T13:37:49;93859.47;;;10.48;50.31
39681;BME280;26327;42.550;23.120;2023-02-15T13:40:35;93869.72;;;10.24;51.66
39681;BME280;26327;42.550;23.120;2023-02-15T13:48:05;93866.34;;;9.88;54.01
39681;BME280;26327;42.550;23.120;2023-02-15T13:53:35;93874.25;;;9.60;54.67
39681;BME280;26327;42.550;23.120;2023-02-15T14:18:01;93825.31;;;8.94;57.36
39681;BME280;26327;42.550;23.120;2023-02-15T14:21:30;93890.28;;;9.10;56.57
39681;BME280;26327;42.550;23.120;2023-02-15T14:26:37;93839.88;;;8.77;57.39
39681;BME280;26327;42.550;23.120;2023-02-15T14:31:41;93778.53;;;8.13;57.03
39681;BME280;26327;42.550;23.120;2023-02-15T14:37:11;93876.78;;;8.62;60.04
39681;BME280;26327;42.550;23.120;2023-02-15T14:39:47;93897.69;;;8.78;59.36
39681;BME280;26327;42.550;23.120;2023-02-15T14:42:50;93881.72;;;8.45;58.94
39681;BME280;26327;42.550;23.120;2023-02-15T14:48:34;93864.22;;;8.20;59.95
39681;BME280;26327;42.550;23.120;2023-02-15T14:51:01;93842.72;;;8.00;59.69
39681;BME280;26327;42.550;23.120;2023-02-15T14:59:00;93879.53;;;7.94;61.50
39681;BME280;26327;42.550;23.120;2023-02-15T15:01:35;93885.00;;;7.81;61.88
39681;BME280;26327;42.550;23.120;2023-02-15T15:04:13;93863.66;;;7.60;63.00
39681;BME280;26327;42.550;23.120;2023-02-15T15:06:59;93868.94;;;7.68;62.78
39681;BME280;26327;42.550;23.120;2023-02-15T15:09:27;93719.75;;;6.64;63.92
39681;BME280;26327;42.550;23.120;2023-02-15T15:12:13;93866.38;;;7.68;63.59
39681;BME280;26327;42.550;23.120;2023-02-15T15:14:42;93835.34;;;7.39;63.17
39681;BME280;26327;42.550;23.120;2023-02-15T15:17:13;93875.63;;;7.61;63.95
39681;BME280;26327;42.550;23.120;2023-02-15T15:20:00;93881.47;;;7.44;65.53
39681;BME280;26327;42.550;23.120;2023-02-15T15:22:27;93822.66;;;6.98;65.87
39681;BME280;26327;42.550;23.120;2023-02-15T15:24:59;93863.38;;;7.34;65.28
39681;BME280;26327;42.550;23.120;2023-02-15T15:27:46;93894.66;;;7.31;64.98
39681;BME280;26327;42.550;23.120;2023-02-15T15:41:17;93928.56;;;6.48;69.08
39681;BME280;26327;42.550;23.120;2023-02-15T15:44:09;93926.50;;;6.42;70.34
39681;BME280;26327;42.550;23.120;2023-02-15T15:49:19;93871.53;;;5.79;71.24
39681;BME280;26327;42.550;23.120;2023-02-15T15:51:46;93897.31;;;5.79;72.23
39681;BME280;26327;42.550;23.120;2023-02-15T15:54:16;93921.22;;;5.81;72.83
39681;BME280;26327;42.550;23.120;2023-02-15T15:56:45;93875.34;;;5.43;74.27
39681;BME280;26327;42.550;23.120;2023-02-15T15:59:19;93871.88;;;5.32;74.52
39681;BME280;26327;42.550;23.120;2023-02-15T16:01:47;93943.19;;;5.43;75.22
39681;BME280;26327;42.550;23.120;2023-02-15T16:04:21;93886.25;;;5.03;76.00
39681;BME280;26327;42.550;23.120;2023-02-15T16:06:48;93927.03;;;4.98;78.05
39681;BME280;26327;42.550;23.120;2023-02-15T16:09:20;93892.44;;;4.57;80.14
39681;BME280;26327;42.550;23.120;2023-02-15T16:11:55;93938.06;;;4.66;80.65
39681;BME280;26327;42.550;23.120;2023-02-15T16:14:34;93879.97;;;4.30;79.90
39681;BME280;26327;42.550;23.120;2023-02-15T16:17:02;93947.09;;;4.38;81.20
39681;BME280;26327;42.550;23.120;2023-02-15T16:19:33;93893.25;;;3.91;81.94
39681;BME280;26327;42.550;23.120;2023-02-15T16:22:01;93950.91;;;4.10;82.12
39681;BME280;26327;42.550;23.120;2023-02-15T16:24:52;93952.94;;;4.29;82.75
39681;BME280;26327;42.550;23.120;2023-02-15T16:29:58;93907.53;;;3.95;81.67
39681;BME280;26327;42.550;23.120;2023-02-15T16:32:27;93939.56;;;4.13;82.13
39681;BME280;26327;42.550;23.120;2023-02-15T16:34:57;93967.97;;;4.11;83.86
39681;BME280;26327;42.550;23.120;2023-02-15T16:37:25;93925.28;;;3.87;83.95
39681;BME280;26327;42.550;23.120;2023-02-15T16:39:53;93916.81;;;3.73;84.28
39681;BME280;26327;42.550;23.120;2023-02-15T16:42:19;93906.38;;;3.64;83.49
39681;BME280;26327;42.550;23.120;2023-02-15T16:44:48;93958.09;;;3.83;86.09
39681;BME280;26327;42.550;23.120;2023-02-15T16:47:21;93906.44;;;3.40;86.76
39681;BME280;26327;42.550;23.120;2023-02-15T16:49:51;93961.81;;;3.44;85.94
39681;BME280;26327;42.550;23.120;2023-02-15T16:52:23;93927.22;;;2.27;90.78
39681;BME280;26327;42.550;23.120;2023-02-15T16:55:02;93975.06;;;2.77;91.89
39681;BME280;26327;42.550;23.120;2023-02-15T16:57:35;93914.28;;;2.54;88.89
39681;BME280;26327;42.550;23.120;2023-02-15T17:00:07;93974.59;;;2.60;90.65
39681;BME280;26327;42.550;23.120;2023-02-15T17:02:34;93983.03;;;2.49;91.92
39681;BME280;26327;42.550;23.120;2023-02-15T17:05:14;93940.06;;;2.27;91.38
39681;BME280;26327;42.550;23.120;2023-02-15T17:08:52;93969.91;;;2.53;90.44
39681;BME280;26327;42.550;23.120;2023-02-15T17:13:23;93922.53;;;2.08;92.87
39681;BME280;26327;42.550;23.120;2023-02-15T17:18:26;93943.03;;;2.21;93.01
39681;BME280;26327;42.550;23.120;2023-02-15T17:20:56;93972.47;;;2.41;91.63
39681;BME280;26327;42.550;23.120;2023-02-15T17:26:20;93985.09;;;2.31;92.87
39681;BME280;26327;42.550;23.120;2023-02-15T17:28:54;93956.75;;;1.56;95.78
39681;BME280;26327;42.550;23.120;2023-02-15T17:31:24;93937.28;;;1.79;94.14
39681;BME280;26327;42.550;23.120;2023-02-15T17:33:51;93990.22;;;2.18;94.50
39681;BME280;26327;42.550;23.120;2023-02-15T17:36:23;93983.44;;;2.05;93.36
39681;BME280;26327;42.550;23.120;2023-02-15T17:39:00;94002.31;;;2.16;93.06
39681;BME280;26327;42.550;23.120;2023-02-15T17:41:30;93997.91;;;2.18;92.84
39681;BME280;26327;42.550;23.120;2023-02-15T17:43:56;93990.72;;;1.98;93.35
39681;BME280;26327;42.550;23.120;2023-02-15T17:46:23;93952.13;;;1.62;93.55
39681;BME280;26327;42.550;23.120;2023-02-15T17:48:54;94014.69;;;1.84;94.44
39681;BME280;26327;42.550;23.120;2023-02-15T17:51:22;94007.94;;;1.96;94.55
39681;BME280;26327;42.550;23.120;2023-02-15T17:53:48;93949.88;;;1.17;95.61
39681;BME280;26327;42.550;23.120;2023-02-15T17:56:36;93950.03;;;1.02;95.56
39681;BME280;26327;42.550;23.120;2023-02-15T17:59:02;94007.94;;;0.61;100.00
39681;BME280;26327;42.550;23.120;2023-02-15T18:01:33;93944.41;;;0.13;100.00
39681;BME280;26327;42.550;23.120;2023-02-15T18:04:17;93995.09;;;0.90;100.00
39681;BME280;26327;42.550;23.120;2023-02-15T18:07:02;93988.81;;;1.35;99.94
39681;BME280;26327;42.550;23.120;2023-02-15T18:09:46;94012.31;;;1.42;98.77
39681;BME280;26327;42.550;23.120;2023-02-15T18:12:32;93990.09;;;1.42;98.61
39681;BME280;26327;42.550;23.120;2023-02-15T18:14:58;94003.38;;;1.35;97.72
39681;BME280;26327;42.550;23.120;2023-02-15T18:17:27;93960.97;;;1.04;96.94
39681;BME280;26327;42.550;23.120;2023-02-15T18:19:54;94008.22;;;1.12;98.44
39681;BME280;26327;42.550;23.120;2023-02-15T18:22:20;93960.88;;;1.05;98.07
39681;BME280;26327;42.550;23.120;2023-02-15T18:24:48;93946.47;;;0.90;97.85
39681;BME280;26327;42.550;23.120;2023-02-15T18:27:15;93992.06;;;0.98;98.85
39681;BME280;26327;42.550;23.120;2023-02-15T18:29:41;93997.53;;;1.06;98.56
39681;BME280;26327;42.550;23.120;2023-02-15T18:32:15;94004.81;;;1.12;97.62
39681;BME280;26327;42.550;23.120;2023-02-15T18:34:43;94002.81;;;1.44;96.67
39681;BME280;26327;42.550;23.120;2023-02-15T18:37:22;93958.13;;;1.08;96.77
39681;BME280;26327;42.550;23.120;2023-02-15T18:39:52;93954.25;;;0.88;96.14
39681;BME280;26327;42.550;23.120;2023-02-15T18:42:28;94002.22;;;0.85;97.38
39681;BME280;26327;42.550;23.120;2023-02-15T18:44:57;94001.91;;;0.62;100.00
39681;BME280;26327;42.550;23.120;2023-02-15T18:47:23;93985.28;;;0.55;100.00
39681;BME280;26327;42.550;23.120;2023-02-15T18:49:48;94003.41;;;0.79;99.09
39681;BME280;26327;42.550;23.120;2023-02-15T18:52:25;93995.94;;;0.76;99.23
39681;BME280;26327;42.550;23.120;2023-02-15T18:54:55;94008.63;;;0.78;98.66
39681;BME280;26327;42.550;23.120;2023-02-15T18:57:22;93990.56;;;0.67;98.53
39681;BME280;26327;42.550;23.120;2023-02-15T18:59:47;93943.19;;;-0.10;100.00
39681;BME280;26327;42.550;23.120;2023-02-15T19:02:17;94005.41;;;-0.11;100.00
39681;BME280;26327;42.550;23.120;2023-02-15T19:04:43;94007.84;;;0.06;100.00
39681;BME280;26327;42.550;23.120;2023-02-15T19:07:28;94008.78;;;-0.11;100.00
39681;BME280;26327;42.550;23.120;2023-02-15T19:09:58;93949.06;;;0.06;100.00
39681;BME280;26327;42.550;23.120;2023-02-15T19:12:25;93936.34;;;-0.38;100.00
39681;BME280;26327;42.550;23.120;2023-02-15T19:14:51;94008.75;;;-0.25;100.00
39681;BME280;26327;42.550;23.120;2023-02-15T19:17:20;93993.22;;;0.22;100.00
39681;BME280;26327;42.550;23.120;2023-02-15T19:19:46;93945.47;;;-0.06;100.00
39681;BME280;26327;42.550;23.120;2023-02-15T19:22:25;94001.91;;;0.34;100.00
39681;BME280;26327;42.550;23.120;2023-02-15T19:24:52;93940.81;;;-0.13;100.00
39681;BME280;26327;42.550;23.120;2023-02-15T19:27:24;93982.28;;;0.20;100.00
39681;BME280;26327;42.550;23.120;2023-02-15T19:29:50;93981.47;;;0.20;100.00
39681;BME280;26327;42.550;23.120;2023-02-15T19:32:16;93990.00;;;-0.10;100.00
39681;BME280;26327;42.550;23.120;2023-02-15T19:34:42;93980.09;;;0.00;100.00
39681;BME280;26327;42.550;23.120;2023-02-15T19:37:19;93977.16;;;0.20;100.00
39681;BME280;26327;42.550;23.120;2023-02-15T19:39:46;93983.91;;;0.21;100.00
39681;BME280;26327;42.550;23.120;2023-02-15T19:42:13;93967.88;;;0.05;100.00
39681;BME280;26327;42.550;23.120;2023-02-15T19:44:39;93960.59;;;-0.45;100.00
39681;BME280;26327;42.550;23.120;2023-02-15T19:47:14;93952.78;;;-0.14;100.00
39681;BME280;26327;42.550;23.120;2023-02-15T19:49:39;93989.13;;;0.06;100.00
39681;BME280;26327;42.550;23.120;2023-02-15T19:52:09;93995.84;;;-0.08;100.00
39681;BME280;26327;42.550;23.120;2023-02-15T19:54:38;93992.78;;;0.02;100.00
39681;BME280;26327;42.550;23.120;2023-02-15T19:57:04;93978.84;;;-0.23;100.00
39681;BME280;26327;42.550;23.120;2023-02-15T19:59:31;93974.56;;;-0.22;100.00
39681;BME280;26327;42.550;23.120;2023-02-15T20:01:58;93970.47;;;-0.55;100.00
39681;BME280;26327;42.550;23.120;2023-02-15T20:04:24;93943.06;;;-0.97;100.00
39681;BME280;26327;42.550;23.120;2023-02-15T20:06:52;93991.13;;;-0.44;100.00
39681;BME280;26327;42.550;23.120;2023-02-15T20:09:21;93995.19;;;-0.11;100.00
39681;BME280;26327;42.550;23.120;2023-02-15T20:11:51;93974.22;;;-0.02;100.00
39681;BME280;26327;42.550;23.120;2023-02-15T20:14:18;93989.13;;;0.06;100.00
39681;BME280;26327;42.550;23.120;2023-02-15T20:16:43;93994.84;;;-0.05;100.00
39681;BME280;26327;42.550;23.120;2023-02-15T20:19:09;93989.75;;;0.09;100.00
39681;BME280;26327;42.550;23.120;2023-02-15T20:21:35;93993.50;;;0.18;100.00
39681;BME280;26327;42.550;23.120;2023-02-15T20:24:01;93949.75;;;-0.35;100.00
39681;BME280;26327;42.550;23.120;2023-02-15T20:26:26;93999.13;;;-0.06;100.00
39681;BME280;26327;42.550;23.120;2023-02-15T20:28:55;93986.59;;;-0.24;100.00
39681;BME280;26327;42.550;23.120;2023-02-15T20:31:21;93992.53;;;-0.10;99.92
39681;BME280;26327;42.550;23.120;2023-02-15T20:33:47;93991.59;;;0.07;98.86
39681;BME280;26327;42.550;23.120;2023-02-15T20:36:14;94002.47;;;-0.34;100.00
39681;BME280;26327;42.550;23.120;2023-02-15T20:38:41;93992.09;;;-0.02;99.46
39681;BME280;26327;42.550;23.120;2023-02-15T20:41:13;93990.25;;;-0.14;99.36
39681;BME280;26327;42.550;23.120;2023-02-15T20:43:57;93987.72;;;-0.14;99.90
39681;BME280;26327;42.550;23.120;2023-02-15T20:46:23;93932.69;;;-0.34;98.46
39681;BME280;26327;42.550;23.120;2023-02-15T20:48:49;93939.06;;;-0.71;99.27
39681;BME280;26327;42.550;23.120;2023-02-15T20:51:19;93941.66;;;-0.57;99.20
39681;BME280;26327;42.550;23.120;2023-02-15T20:53:45;93957.94;;;-0.44;99.02
39681;BME280;26327;42.550;23.120;2023-02-15T20:56:22;94000.47;;;-0.14;99.26
39681;BME280;26327;42.550;23.120;2023-02-15T20:58:48;93978.59;;;-0.18;98.79
39681;BME280;26327;42.550;23.120;2023-02-15T21:01:14;93941.00;;;-0.60;99.14
39681;BME280;26327;42.550;23.120;2023-02-15T21:03:39;93983.13;;;-0.83;100.00
39681;BME280;26327;42.550;23.120;2023-02-15T21:06:05;93980.69;;;-0.55;100.00
39681;BME280;26327;42.550;23.120;2023-02-15T21:08:31;93970.47;;;-0.55;99.96
39681;BME280;26327;42.550;23.120;2023-02-15T21:10:57;93983.13;;;1.17;93.22
39681;BME280;26327;42.550;23.120;2023-02-15T21:13:33;93980.03;;;1.39;89.82
39681;BME280;26327;42.550;23.120;2023-02-15T21:15:59;93965.31;;;1.95;86.46
39681;BME280;26327;42.550;23.120;2023-02-15T21:18:27;93988.06;;;0.79;90.98
39681;BME280;26327;42.550;23.120;2023-02-15T21:20:55;93962.69;;;1.57;87.69
39681;BME280;26327;42.550;23.120;2023-02-15T21:23:24;93925.25;;;1.02;88.76
39681;BME280;26327;42.550;23.120;2023-02-15T21:25:51;93902.84;;;0.38;89.62
